createdAt,value
2023-05-13T00:03:16.440Z,10.43
2023-05-13T00:07:19.477Z,10.52
2023-05-13T00:11:22.388Z,10.36
2023-05-13T00:15:26.794Z,10.27
2023-05-13T00:19:29.718Z,10.20
2023-05-13T00:23:32.784Z,10.15
2023-05-13T00:27:35.871Z,10.24
2023-05-13T00:31:40.187Z,10.21
2023-05-13T00:35:43.190Z,10.29
2023-05-13T00:39:46.147Z,10.36
2023-05-13T00:43:49.084Z,10.37
2023-05-13T00:47:53.523Z,10.40
2023-05-13T00:51:56.505Z,10.46
2023-05-13T00:55:59.474Z,10.57
2023-05-13T01:00:03.644Z,10.42
2023-05-13T01:04:14.121Z,10.47
2023-05-13T01:08:22.103Z,10.38
2023-05-13T01:12:30.530Z,10.46
2023-05-13T01:16:36.882Z,10.34
2023-05-13T01:20:43.688Z,10.35
2023-05-13T01:24:48.340Z,10.35
2023-05-13T01:28:51.439Z,10.28
2023-05-13T01:32:55.133Z,10.22
2023-05-13T01:36:59.055Z,10.14
2023-05-13T01:41:04.326Z,10.17
2023-05-13T01:45:08.051Z,10.18
2023-05-13T01:49:11.224Z,10.04
2023-05-13T01:53:14.573Z,10.00
2023-05-13T01:57:18.936Z,10.01
2023-05-13T02:01:22.895Z,10.04
2023-05-13T02:05:25.813Z,10.12
2023-05-13T02:09:30.056Z,10.14
2023-05-13T02:13:35.296Z,9.90
2023-05-13T02:17:38.210Z,9.73
2023-05-13T02:21:43.758Z,9.67
2023-05-13T02:25:46.620Z,9.59
2023-05-13T02:29:51.215Z,9.56
2023-05-13T02:33:54.490Z,9.55
2023-05-13T02:37:57.591Z,9.48
2023-05-13T02:42:00.582Z,9.45
2023-05-13T02:46:09.575Z,9.40
2023-05-13T02:50:14.353Z,9.46
2023-05-13T02:54:18.791Z,9.39
2023-05-13T02:58:21.808Z,9.34
2023-05-13T03:02:26.274Z,9.18
2023-05-13T03:06:29.330Z,9.21
2023-05-13T03:10:32.367Z,9.20
2023-05-13T03:14:37.159Z,9.13
2023-05-13T03:18:41.483Z,9.15
2023-05-13T03:22:45.611Z,9.03
2023-05-13T03:26:48.956Z,8.95
2023-05-13T03:30:52.063Z,8.92
2023-05-13T03:34:56.919Z,8.95
2023-05-13T03:39:00.069Z,8.88
2023-05-13T03:43:03.303Z,8.86
2023-05-13T03:47:07.315Z,8.80
2023-05-13T03:51:11.953Z,8.87
2023-05-13T03:55:15.904Z,8.91
2023-05-13T03:59:18.789Z,8.96
2023-05-13T04:03:21.763Z,8.96
2023-05-13T04:07:26.117Z,8.94
2023-05-13T04:11:29.027Z,8.90
2023-05-13T04:15:32.515Z,9.05
2023-05-13T04:19:35.410Z,9.16
2023-05-13T04:23:39.695Z,9.27
2023-05-13T04:27:42.608Z,9.38
2023-05-13T04:31:51.827Z,9.40
2023-05-13T04:35:55.188Z,9.46
2023-05-13T04:40:00.646Z,9.62
2023-05-13T04:44:06.239Z,9.60
2023-05-13T04:48:09.852Z,9.62
2023-05-13T04:52:13.226Z,9.65
2023-05-13T04:56:17.924Z,9.69
2023-05-13T05:00:21.185Z,9.63
2023-05-13T05:04:26.518Z,9.67
2023-05-13T05:08:29.862Z,9.70
2023-05-13T05:12:36.682Z,9.83
2023-05-13T05:16:39.664Z,9.86
2023-05-13T05:20:42.642Z,9.93
2023-05-13T05:24:51.156Z,9.97
2023-05-13T05:28:55.501Z,10.20
2023-05-13T05:32:58.552Z,10.34
2023-05-13T05:37:01.773Z,10.58
2023-05-13T05:41:05.702Z,10.81
2023-05-13T05:45:10.789Z,11.01
2023-05-13T05:49:14.558Z,11.25
2023-05-13T05:53:17.518Z,11.40
2023-05-13T05:57:21.321Z,11.68
2023-05-13T06:01:26.325Z,11.93
2023-05-13T06:05:29.677Z,12.08
2023-05-13T06:09:32.782Z,12.33
2023-05-13T06:13:35.830Z,12.59
2023-05-13T06:17:40.282Z,12.73
2023-05-13T06:21:45.187Z,13.04
2023-05-13T06:25:48.113Z,13.19
2023-05-13T06:29:51.241Z,13.42
2023-05-13T06:33:57.498Z,13.70
2023-05-13T06:38:00.738Z,14.06
2023-05-13T06:42:04.119Z,14.30
2023-05-13T06:46:09.851Z,14.54
2023-05-13T06:50:14.135Z,14.59
2023-05-13T06:54:17.191Z,14.58
2023-05-13T06:58:20.306Z,14.97
2023-05-13T07:02:23.228Z,14.97
2023-05-13T07:06:27.700Z,15.51
2023-05-13T07:10:30.654Z,15.43
2023-05-13T07:14:33.795Z,15.54
2023-05-13T07:18:36.764Z,15.71
2023-05-13T07:22:41.228Z,15.67
2023-05-13T07:26:44.053Z,15.95
2023-05-13T07:30:47.285Z,16.04
2023-05-13T07:34:50.561Z,16.04
2023-05-13T07:38:55.295Z,16.28
2023-05-13T07:42:58.728Z,16.58
2023-05-13T07:47:02.138Z,16.75
2023-05-13T07:51:06.304Z,17.25
2023-05-13T07:55:11.574Z,17.03
2023-05-13T07:59:15.138Z,17.54
2023-05-13T08:03:19.666Z,17.56
2023-05-13T08:07:23.150Z,17.40
2023-05-13T08:11:27.826Z,18.02
2023-05-13T08:15:30.942Z,18.34
2023-05-13T08:19:33.847Z,19.63
2023-05-13T08:23:45.547Z,19.39
2023-05-13T08:27:50.698Z,19.94
2023-05-13T08:31:53.982Z,19.67
2023-05-13T08:35:56.918Z,19.45
2023-05-13T08:40:01.647Z,19.58
2023-05-13T08:44:07.620Z,19.15
2023-05-13T08:48:11.336Z,20.41
2023-05-13T08:52:14.803Z,20.69
2023-05-13T08:56:17.745Z,21.14
2023-05-13T09:00:22.281Z,22.21
2023-05-13T09:04:26.441Z,21.34
2023-05-13T09:08:29.487Z,21.73
2023-05-13T09:12:45.811Z,22.14
2023-05-13T09:16:50.076Z,22.90
2023-05-13T09:20:53.021Z,22.46
2023-05-13T09:24:56.580Z,23.13
2023-05-13T09:29:14.585Z,21.53
2023-05-13T09:33:20.381Z,21.31
2023-05-13T09:37:24.782Z,22.41
2023-05-13T09:41:27.827Z,22.22
2023-05-13T09:45:31.631Z,23.01
2023-05-13T09:49:35.875Z,22.89
2023-05-13T09:53:38.801Z,23.67
2023-05-13T09:57:42.933Z,23.47
2023-05-13T10:01:46.725Z,22.25
2023-05-13T10:05:52.526Z,22.80
2023-05-13T10:09:58.369Z,23.48
2023-05-13T10:14:02.257Z,23.95
2023-05-13T10:18:07.861Z,23.79
2023-05-13T10:22:13.147Z,23.80
2023-05-13T10:26:16.612Z,23.77
2023-05-13T10:30:20.584Z,23.21
2023-05-13T10:34:24.490Z,23.59
2023-05-13T10:38:35.235Z,23.38
2023-05-13T10:42:40.537Z,23.05
2023-05-13T10:46:44.402Z,23.44
2023-05-13T10:50:54.549Z,23.33
2023-05-13T10:55:03.264Z,23.52
2023-05-13T10:59:07.834Z,23.59
2023-05-13T11:03:11.867Z,23.21
2023-05-13T11:07:15.910Z,24.49
2023-05-13T11:11:23.988Z,24.20
2023-05-13T11:15:44.156Z,24.02
2023-05-13T11:19:48.124Z,23.92
2023-05-13T11:23:52.098Z,23.58
2023-05-13T11:27:56.611Z,24.20
2023-05-13T11:32:00.991Z,24.98
2023-05-13T11:36:04.896Z,24.82
2023-05-13T11:40:08.528Z,25.14
2023-05-13T11:44:14.272Z,23.19
2023-05-13T11:48:20.689Z,24.84
2023-05-13T11:52:23.658Z,24.94
2023-05-13T11:56:27.321Z,24.91
2023-05-13T12:00:32.539Z,25.56
2023-05-13T12:04:35.765Z,25.85
2023-05-13T12:08:44.318Z,26.47
2023-05-13T12:12:47.589Z,26.40
2023-05-13T12:16:52.106Z,24.92
2023-05-13T12:20:55.010Z,23.83
2023-05-13T12:25:01.133Z,22.79
2023-05-13T12:29:05.039Z,23.27
2023-05-13T12:33:13.757Z,24.13
2023-05-13T12:37:16.944Z,23.11
2023-05-13T12:41:20.018Z,22.95
2023-05-13T12:45:23.470Z,22.99
2023-05-13T12:49:27.993Z,22.49
2023-05-13T12:53:31.118Z,24.18
2023-05-13T12:57:34.050Z,23.37
2023-05-13T13:01:37.299Z,22.85
2023-05-13T13:05:41.848Z,22.63
2023-05-13T13:09:44.746Z,22.98
2023-05-13T13:13:47.901Z,24.81
2023-05-13T13:17:51.087Z,23.81
2023-05-13T13:21:55.390Z,23.99
2023-05-13T13:25:59.335Z,21.98
2023-05-13T13:30:02.361Z,21.65
2023-05-13T13:34:09.905Z,20.62
2023-05-13T13:38:14.603Z,20.49
2023-05-13T13:42:17.649Z,20.07
2023-05-13T13:46:21.173Z,19.61
2023-05-13T13:50:24.458Z,19.56
2023-05-13T13:54:28.793Z,19.55
2023-05-13T13:58:31.829Z,19.57
2023-05-13T14:02:34.966Z,19.04
2023-05-13T14:06:38.047Z,19.09
2023-05-13T14:10:42.376Z,19.14
2023-05-13T14:14:45.311Z,19.06
2023-05-13T14:18:48.386Z,19.26
2023-05-13T14:22:51.341Z,20.37
2023-05-13T14:26:56.020Z,21.01
2023-05-13T14:30:58.948Z,19.72
2023-05-13T14:35:01.885Z,19.10
2023-05-13T14:39:04.765Z,19.03
2023-05-13T14:43:09.003Z,19.77
2023-05-13T14:47:12.062Z,21.65
2023-05-13T14:51:14.944Z,21.96
2023-05-13T14:55:17.876Z,22.30
2023-05-13T14:59:22.178Z,23.61
2023-05-13T15:03:25.236Z,23.26
2023-05-13T15:07:28.712Z,22.11
2023-05-13T15:11:31.584Z,21.78
2023-05-13T15:15:36.636Z,21.94
2023-05-13T15:19:39.848Z,21.65
2023-05-13T15:23:42.792Z,21.47
2023-05-13T15:27:45.676Z,19.30
2023-05-13T15:31:51.905Z,16.57
2023-05-13T15:35:54.815Z,15.37
2023-05-13T15:39:57.698Z,15.56
2023-05-13T15:44:00.669Z,15.27
2023-05-13T15:48:05.298Z,15.49
2023-05-13T15:52:08.297Z,15.31
2023-05-13T15:56:11.289Z,15.30
2023-05-13T16:00:15.192Z,15.67
2023-05-13T16:04:19.622Z,15.83
2023-05-13T16:08:22.606Z,15.93
2023-05-13T16:12:25.548Z,16.09
2023-05-13T16:16:28.555Z,16.29
2023-05-13T16:20:33.343Z,16.32
2023-05-13T16:24:36.416Z,16.31
2023-05-13T16:28:39.458Z,16.22
2023-05-13T16:32:42.899Z,17.59
2023-05-13T16:36:47.193Z,17.49
2023-05-13T16:40:50.284Z,16.85
2023-05-13T16:44:53.282Z,16.32
2023-05-13T16:48:57.823Z,15.47
2023-05-13T16:53:03.649Z,15.41
2023-05-13T16:57:06.966Z,15.23
2023-05-13T17:01:10.173Z,15.01
2023-05-13T17:05:13.207Z,14.83
2023-05-13T17:09:17.901Z,14.79
2023-05-13T17:13:21.618Z,14.65
2023-05-13T17:17:24.911Z,14.55
2023-05-13T17:21:28.028Z,14.58
2023-05-13T17:25:32.513Z,14.55
2023-05-13T17:29:35.547Z,14.51
2023-05-13T17:33:38.595Z,14.50
2023-05-13T17:37:41.516Z,14.59
2023-05-13T17:41:46.193Z,14.69
2023-05-13T17:45:49.615Z,14.86
2023-05-13T17:49:52.604Z,14.74
2023-05-13T17:53:55.626Z,14.82
2023-05-13T17:58:00.036Z,14.97
2023-05-13T18:02:03.054Z,15.03
2023-05-13T18:06:06.486Z,15.09
2023-05-13T18:10:10.095Z,15.21
2023-05-13T18:14:14.466Z,15.15
2023-05-13T18:18:18.618Z,15.05
2023-05-13T18:22:21.579Z,15.04
2023-05-13T18:26:24.628Z,15.19
2023-05-13T18:30:30.972Z,15.45
2023-05-13T18:34:35.570Z,15.60
2023-05-13T18:38:39.997Z,15.68
2023-05-13T18:42:43.238Z,15.50
2023-05-13T18:46:47.751Z,15.07
2023-05-13T18:50:50.859Z,14.75
2023-05-13T18:54:53.821Z,14.23
2023-05-13T18:58:57.157Z,14.29
2023-05-13T19:03:01.825Z,14.41
2023-05-13T19:07:04.839Z,14.40
2023-05-13T19:11:07.859Z,14.30
2023-05-13T19:15:11.455Z,14.05
2023-05-13T19:19:15.933Z,13.92
2023-05-13T19:23:19.217Z,13.46
2023-05-13T19:27:23.053Z,13.47
2023-05-13T19:31:27.005Z,13.50
2023-05-13T19:35:31.656Z,13.47
2023-05-13T19:39:34.670Z,13.41
2023-05-13T19:43:38.410Z,13.42
2023-05-13T19:47:41.496Z,13.35
2023-05-13T19:51:46.083Z,13.30
2023-05-13T19:55:49.003Z,13.38
2023-05-13T19:59:52.365Z,13.46
2023-05-13T20:03:55.810Z,13.46
2023-05-13T20:08:00.222Z,13.49
2023-05-13T20:12:03.713Z,13.43
2023-05-13T20:16:06.751Z,13.39
2023-05-13T20:20:10.107Z,13.18
2023-05-13T20:24:14.618Z,13.14
2023-05-13T20:28:17.568Z,13.09
2023-05-13T20:32:24.715Z,12.97
2023-05-13T20:36:28.023Z,12.77
2023-05-13T20:40:32.428Z,12.53
2023-05-13T20:44:35.880Z,12.48
2023-05-13T20:48:38.827Z,12.47
2023-05-13T20:52:41.894Z,12.48
2023-05-13T20:56:46.247Z,12.46
2023-05-13T21:00:49.272Z,12.36
2023-05-13T21:04:52.212Z,12.29
2023-05-13T21:08:55.519Z,12.13
2023-05-13T21:13:01.170Z,12.03
2023-05-13T21:17:04.287Z,12.05
2023-05-13T21:21:17.557Z,12.01
2023-05-13T21:25:27.871Z,11.93
2023-05-13T21:29:32.571Z,12.02
2023-05-13T21:33:35.605Z,12.03
2023-05-13T21:37:38.754Z,11.95
2023-05-13T21:41:41.681Z,11.93
2023-05-13T21:45:47.300Z,12.00
2023-05-13T21:49:50.215Z,11.99
2023-05-13T21:53:53.710Z,11.99
2023-05-13T21:57:56.615Z,11.91
2023-05-13T22:02:01.693Z,11.89
2023-05-13T22:06:05.142Z,11.85
2023-05-13T22:10:08.652Z,11.95
2023-05-13T22:14:11.560Z,11.96
2023-05-13T22:18:16.327Z,11.95
2023-05-13T22:22:19.330Z,11.96
2023-05-13T22:26:22.318Z,11.87
2023-05-13T22:30:25.568Z,11.86
2023-05-13T22:34:30.186Z,11.85
2023-05-13T22:38:33.050Z,11.90
2023-05-13T22:42:35.937Z,11.91
2023-05-13T22:46:38.851Z,11.85
2023-05-13T22:50:43.169Z,11.73
2023-05-13T22:54:46.106Z,11.68
2023-05-13T22:58:49.134Z,11.66
2023-05-13T23:02:52.089Z,11.59
2023-05-13T23:06:57.422Z,11.52
2023-05-13T23:11:00.467Z,11.44
2023-05-13T23:15:03.351Z,11.32
2023-05-13T23:19:06.665Z,11.30
2023-05-13T23:23:10.982Z,11.33
2023-05-13T23:27:13.880Z,11.28
2023-05-13T23:31:16.828Z,11.23
2023-05-13T23:35:19.731Z,11.17
2023-05-13T23:39:23.972Z,11.13
2023-05-13T23:43:27.002Z,11.19
2023-05-13T23:47:30.505Z,11.10
2023-05-13T23:51:33.662Z,11.14
2023-05-13T23:55:37.852Z,11.15
2023-05-13T23:59:40.715Z,11.14
